sensor_id;sensor_type;location;lat;lon;timestamp;P1;durP1;ratioP1;P2;durP2;ratioP2
21334;SDS011;10826;52.536;13.432;2022-10-24T00:00:45;5.00;;;4.60;;
21334;SDS011;10826;52.536;13.432;2022-10-24T00:03:11;7.53;;;4.93;;
21334;SDS011;10826;52.536;13.432;2022-10-24T00:05:42;5.43;;;4.93;;
21334;SDS011;10826;52.536;13.432;2022-10-24T00:08:11;10.43;;;5.17;;
21334;SDS011;10826;52.536;13.432;2022-10-24T00:10:40;5.83;;;5.07;;
21334;SDS011;10826;52.536;13.432;2022-10-24T00:13:12;5.40;;;4.57;;
21334;SDS011;10826;52.536;13.432;2022-10-24T00:15:43;7.20;;;5.10;;
21334;SDS011;10826;52.536;13.432;2022-10-24T00:18:11;5.77;;;5.10;;
21334;SDS011;10826;52.536;13.432;2022-10-24T00:20:38;5.90;;;5.00;;
21334;SDS011;10826;52.536;13.432;2022-10-24T00:23:05;6.50;;;4.77;;
21334;SDS011;10826;52.536;13.432;2022-10-24T00:25:30;5.37;;;4.60;;
21334;SDS011;10826;52.536;13.432;2022-10-24T00:27:56;7.47;;;4.73;;
21334;SDS011;10826;52.536;13.432;2022-10-24T00:30:22;7.73;;;5.53;;
21334;SDS011;10826;52.536;13.432;2022-10-24T00:32:49;6.30;;;5.63;;
21334;SDS011;10826;52.536;13.432;2022-10-24T00:35:16;8.07;;;5.90;;
21334;SDS011;10826;52.536;13.432;2022-10-24T00:37:42;6.07;;;5.57;;
21334;SDS011;10826;52.536;13.432;2022-10-24T00:40:08;6.33;;;5.50;;
21334;SDS011;10826;52.536;13.432;2022-10-24T00:42:39;5.73;;;5.20;;
21334;SDS011;10826;52.536;13.432;2022-10-24T00:48:17;5.70;;;5.07;;
21334;SDS011;10826;52.536;13.432;2022-10-24T00:50:56;8.07;;;5.03;;
21334;SDS011;10826;52.536;13.432;2022-10-24T00:53:26;6.00;;;5.50;;
21334;SDS011;10826;52.536;13.432;2022-10-24T00:55:58;7.30;;;5.67;;
21334;SDS011;10826;52.536;13.432;2022-10-24T00:58:30;5.80;;;5.20;;
21334;SDS011;10826;52.536;13.432;2022-10-24T01:00:59;7.17;;;5.90;;
21334;SDS011;10826;52.536;13.432;2022-10-24T01:03:25;6.03;;;5.50;;
21334;SDS011;10826;52.536;13.432;2022-10-24T01:06:04;7.13;;;5.37;;
21334;SDS011;10826;52.536;13.432;2022-10-24T01:16:46;8.03;;;5.07;;
21334;SDS011;10826;52.536;13.432;2022-10-24T01:22:46;6.10;;;4.47;;
21334;SDS011;10826;52.536;13.432;2022-10-24T01:28:31;7.27;;;5.23;;
21334;SDS011;10826;52.536;13.432;2022-10-24T01:31:27;5.77;;;5.00;;
21334;SDS011;10826;52.536;13.432;2022-10-24T01:34:09;5.53;;;5.00;;
21334;SDS011;10826;52.536;13.432;2022-10-24T01:37:09;6.13;;;5.37;;
21334;SDS011;10826;52.536;13.432;2022-10-24T01:39:55;8.47;;;6.00;;
21334;SDS011;10826;52.536;13.432;2022-10-24T01:42:31;6.60;;;5.07;;
21334;SDS011;10826;52.536;13.432;2022-10-24T01:45:01;5.83;;;5.20;;
21334;SDS011;10826;52.536;13.432;2022-10-24T01:47:32;5.70;;;4.83;;
21334;SDS011;10826;52.536;13.432;2022-10-24T01:50:06;6.50;;;5.17;;
21334;SDS011;10826;52.536;13.432;2022-10-24T01:52:39;6.77;;;5.13;;
21334;SDS011;10826;52.536;13.432;2022-10-24T01:55:08;5.67;;;5.10;;
21334;SDS011;10826;52.536;13.432;2022-10-24T01:57:35;6.73;;;5.67;;
21334;SDS011;10826;52.536;13.432;2022-10-24T02:00:03;6.00;;;5.47;;
21334;SDS011;10826;52.536;13.432;2022-10-24T02:03:15;6.57;;;5.03;;
21334;SDS011;10826;52.536;13.432;2022-10-24T02:08:03;6.93;;;4.80;;
21334;SDS011;10826;52.536;13.432;2022-10-24T02:10:38;6.27;;;5.27;;
21334;SDS011;10826;52.536;13.432;2022-10-24T02:13:12;5.67;;;4.50;;
21334;SDS011;10826;52.536;13.432;2022-10-24T02:15:51;5.63;;;5.00;;
21334;SDS011;10826;52.536;13.432;2022-10-24T02:18:21;5.93;;;5.03;;
21334;SDS011;10826;52.536;13.432;2022-10-24T02:20:52;5.73;;;5.23;;
21334;SDS011;10826;52.536;13.432;2022-10-24T02:23:36;7.63;;;5.47;;
21334;SDS011;10826;52.536;13.432;2022-10-24T02:29:23;6.37;;;5.50;;
21334;SDS011;10826;52.536;13.432;2022-10-24T02:32:04;6.00;;;5.30;;
21334;SDS011;10826;52.536;13.432;2022-10-24T02:34:34;6.43;;;5.40;;
21334;SDS011;10826;52.536;13.432;2022-10-24T02:37:03;6.40;;;5.30;;
21334;SDS011;10826;52.536;13.432;2022-10-24T02:39:32;5.80;;;5.20;;
21334;SDS011;10826;52.536;13.432;2022-10-24T02:42:02;6.20;;;5.60;;
21334;SDS011;10826;52.536;13.432;2022-10-24T02:44:31;6.10;;;5.50;;
21334;SDS011;10826;52.536;13.432;2022-10-24T02:46:59;6.93;;;5.23;;
21334;SDS011;10826;52.536;13.432;2022-10-24T02:49:29;6.47;;;4.90;;
21334;SDS011;10826;52.536;13.432;2022-10-24T02:51:55;8.30;;;6.10;;
21334;SDS011;10826;52.536;13.432;2022-10-24T02:54:22;9.73;;;6.13;;
21334;SDS011;10826;52.536;13.432;2022-10-24T02:56:52;6.33;;;5.73;;
21334;SDS011;10826;52.536;13.432;2022-10-24T02:59:24;6.20;;;5.60;;
21334;SDS011;10826;52.536;13.432;2022-10-24T03:01:50;5.93;;;5.37;;
21334;SDS011;10826;52.536;13.432;2022-10-24T03:04:16;8.57;;;5.90;;
21334;SDS011;10826;52.536;13.432;2022-10-24T03:06:42;6.07;;;5.40;;
21334;SDS011;10826;52.536;13.432;2022-10-24T03:09:08;8.73;;;5.77;;
21334;SDS011;10826;52.536;13.432;2022-10-24T03:11:34;9.23;;;5.97;;
21334;SDS011;10826;52.536;13.432;2022-10-24T03:14:00;7.03;;;5.30;;
21334;SDS011;10826;52.536;13.432;2022-10-24T03:16:26;5.60;;;5.03;;
21334;SDS011;10826;52.536;13.432;2022-10-24T03:18:53;8.13;;;5.30;;
21334;SDS011;10826;52.536;13.432;2022-10-24T03:21:20;7.03;;;5.07;;
21334;SDS011;10826;52.536;13.432;2022-10-24T03:23:46;5.57;;;5.07;;
21334;SDS011;10826;52.536;13.432;2022-10-24T03:26:13;7.20;;;5.00;;
21334;SDS011;10826;52.536;13.432;2022-10-24T03:28:39;6.20;;;4.73;;
21334;SDS011;10826;52.536;13.432;2022-10-24T03:31:05;5.37;;;4.87;;
21334;SDS011;10826;52.536;13.432;2022-10-24T03:33:32;5.97;;;5.27;;
21334;SDS011;10826;52.536;13.432;2022-10-24T03:35:58;9.00;;;5.33;;
21334;SDS011;10826;52.536;13.432;2022-10-24T03:38:24;7.40;;;5.53;;
21334;SDS011;10826;52.536;13.432;2022-10-24T03:40:50;8.40;;;5.20;;
21334;SDS011;10826;52.536;13.432;2022-10-24T03:43:16;7.70;;;4.77;;
21334;SDS011;10826;52.536;13.432;2022-10-24T03:45:43;5.63;;;4.60;;
21334;SDS011;10826;52.536;13.432;2022-10-24T03:48:09;6.77;;;5.03;;
21334;SDS011;10826;52.536;13.432;2022-10-24T03:50:35;5.20;;;4.77;;
21334;SDS011;10826;52.536;13.432;2022-10-24T03:53:01;5.10;;;4.67;;
21334;SDS011;10826;52.536;13.432;2022-10-24T03:55:28;5.07;;;4.67;;
21334;SDS011;10826;52.536;13.432;2022-10-24T03:57:54;6.30;;;5.27;;
21334;SDS011;10826;52.536;13.432;2022-10-24T04:00:22;6.50;;;4.37;;
21334;SDS011;10826;52.536;13.432;2022-10-24T04:02:48;5.47;;;4.87;;
21334;SDS011;10826;52.536;13.432;2022-10-24T04:05:15;6.73;;;4.37;;
21334;SDS011;10826;52.536;13.432;2022-10-24T04:07:42;4.87;;;4.40;;
21334;SDS011;10826;52.536;13.432;2022-10-24T04:10:07;5.93;;;4.87;;
21334;SDS011;10826;52.536;13.432;2022-10-24T04:12:34;4.83;;;4.43;;
21334;SDS011;10826;52.536;13.432;2022-10-24T04:15:00;5.57;;;5.07;;
21334;SDS011;10826;52.536;13.432;2022-10-24T04:17:26;4.70;;;4.30;;
21334;SDS011;10826;52.536;13.432;2022-10-24T04:19:51;4.83;;;4.30;;
21334;SDS011;10826;52.536;13.432;2022-10-24T04:22:17;7.13;;;4.43;;
21334;SDS011;10826;52.536;13.432;2022-10-24T04:24:43;5.13;;;4.43;;
21334;SDS011;10826;52.536;13.432;2022-10-24T04:27:09;4.77;;;4.30;;
21334;SDS011;10826;52.536;13.432;2022-10-24T04:29:35;4.63;;;4.20;;
21334;SDS011;10826;52.536;13.432;2022-10-24T04:32:01;5.90;;;4.43;;
21334;SDS011;10826;52.536;13.432;2022-10-24T04:34:28;6.37;;;4.30;;
21334;SDS011;10826;52.536;13.432;2022-10-24T04:36:54;7.77;;;4.43;;
21334;SDS011;10826;52.536;13.432;2022-10-24T04:39:20;5.53;;;4.70;;
21334;SDS011;10826;52.536;13.432;2022-10-24T04:41:47;7.17;;;4.60;;
21334;SDS011;10826;52.536;13.432;2022-10-24T04:44:12;4.40;;;4.00;;
21334;SDS011;10826;52.536;13.432;2022-10-24T04:46:38;8.83;;;4.57;;
21334;SDS011;10826;52.536;13.432;2022-10-24T04:49:04;4.97;;;4.47;;
21334;SDS011;10826;52.536;13.432;2022-10-24T04:51:30;5.07;;;4.57;;
21334;SDS011;10826;52.536;13.432;2022-10-24T04:53:56;5.23;;;4.70;;
21334;SDS011;10826;52.536;13.432;2022-10-24T04:56:22;4.70;;;4.30;;
21334;SDS011;10826;52.536;13.432;2022-10-24T04:58:50;5.07;;;4.60;;
21334;SDS011;10826;52.536;13.432;2022-10-24T05:01:16;6.30;;;4.53;;
21334;SDS011;10826;52.536;13.432;2022-10-24T05:03:42;7.53;;;5.07;;
21334;SDS011;10826;52.536;13.432;2022-10-24T05:06:08;4.67;;;4.00;;
21334;SDS011;10826;52.536;13.432;2022-10-24T05:08:34;5.63;;;5.03;;
21334;SDS011;10826;52.536;13.432;2022-10-24T05:11:00;5.83;;;4.57;;
21334;SDS011;10826;52.536;13.432;2022-10-24T05:13:27;7.07;;;4.23;;
21334;SDS011;10826;52.536;13.432;2022-10-24T05:15:53;5.10;;;4.40;;
21334;SDS011;10826;52.536;13.432;2022-10-24T05:18:19;6.40;;;4.67;;
21334;SDS011;10826;52.536;13.432;2022-10-24T05:20:45;5.87;;;4.30;;
21334;SDS011;10826;52.536;13.432;2022-10-24T05:23:11;7.83;;;4.30;;
21334;SDS011;10826;52.536;13.432;2022-10-24T05:25:37;8.03;;;4.63;;
21334;SDS011;10826;52.536;13.432;2022-10-24T05:28:03;8.53;;;5.47;;
21334;SDS011;10826;52.536;13.432;2022-10-24T05:30:29;5.30;;;4.30;;
21334;SDS011;10826;52.536;13.432;2022-10-24T05:32:55;6.17;;;4.83;;
21334;SDS011;10826;52.536;13.432;2022-10-24T05:35:22;7.87;;;4.40;;
21334;SDS011;10826;52.536;13.432;2022-10-24T05:37:48;11.17;;;4.10;;
21334;SDS011;10826;52.536;13.432;2022-10-24T05:40:13;4.73;;;3.83;;
21334;SDS011;10826;52.536;13.432;2022-10-24T05:42:40;8.47;;;4.83;;
21334;SDS011;10826;52.536;13.432;2022-10-24T05:45:06;10.43;;;5.17;;
21334;SDS011;10826;52.536;13.432;2022-10-24T05:47:34;5.17;;;4.43;;
21334;SDS011;10826;52.536;13.432;2022-10-24T05:50:00;6.90;;;4.60;;
21334;SDS011;10826;52.536;13.432;2022-10-24T05:52:26;5.37;;;4.47;;
21334;SDS011;10826;52.536;13.432;2022-10-24T05:54:52;4.07;;;3.77;;
21334;SDS011;10826;52.536;13.432;2022-10-24T05:57:19;6.60;;;5.00;;
21334;SDS011;10826;52.536;13.432;2022-10-24T05:59:45;7.23;;;4.80;;
21334;SDS011;10826;52.536;13.432;2022-10-24T06:02:15;6.03;;;4.67;;
21334;SDS011;10826;52.536;13.432;2022-10-24T06:04:43;9.07;;;4.93;;
21334;SDS011;10826;52.536;13.432;2022-10-24T06:07:10;6.33;;;4.60;;
21334;SDS011;10826;52.536;13.432;2022-10-24T06:09:36;6.67;;;4.80;;
21334;SDS011;10826;52.536;13.432;2022-10-24T06:12:05;9.17;;;4.67;;
21334;SDS011;10826;52.536;13.432;2022-10-24T06:14:33;5.87;;;4.50;;
21334;SDS011;10826;52.536;13.432;2022-10-24T06:16:59;8.87;;;4.93;;
21334;SDS011;10826;52.536;13.432;2022-10-24T06:19:25;4.63;;;4.13;;
21334;SDS011;10826;52.536;13.432;2022-10-24T06:21:50;6.13;;;4.40;;
21334;SDS011;10826;52.536;13.432;2022-10-24T06:24:16;11.57;;;5.63;;
21334;SDS011;10826;52.536;13.432;2022-10-24T06:26:42;9.13;;;5.47;;
21334;SDS011;10826;52.536;13.432;2022-10-24T06:29:08;5.83;;;4.73;;
21334;SDS011;10826;52.536;13.432;2022-10-24T06:31:35;8.27;;;4.40;;
21334;SDS011;10826;52.536;13.432;2022-10-24T06:34:02;8.57;;;4.47;;
21334;SDS011;10826;52.536;13.432;2022-10-24T06:36:28;6.07;;;4.73;;
21334;SDS011;10826;52.536;13.432;2022-10-24T06:38:54;7.43;;;4.83;;
21334;SDS011;10826;52.536;13.432;2022-10-24T06:41:21;8.53;;;4.80;;
21334;SDS011;10826;52.536;13.432;2022-10-24T06:43:48;11.77;;;5.60;;
21334;SDS011;10826;52.536;13.432;2022-10-24T06:46:15;6.90;;;4.83;;
21334;SDS011;10826;52.536;13.432;2022-10-24T06:48:41;8.63;;;4.50;;
21334;SDS011;10826;52.536;13.432;2022-10-24T06:51:08;11.20;;;4.97;;
21334;SDS011;10826;52.536;13.432;2022-10-24T06:53:33;6.03;;;4.93;;
21334;SDS011;10826;52.536;13.432;2022-10-24T06:56:00;7.40;;;5.17;;
21334;SDS011;10826;52.536;13.432;2022-10-24T06:58:31;6.30;;;5.07;;
21334;SDS011;10826;52.536;13.432;2022-10-24T07:01:05;6.43;;;5.07;;
21334;SDS011;10826;52.536;13.432;2022-10-24T07:03:39;10.30;;;4.83;;
21334;SDS011;10826;52.536;13.432;2022-10-24T07:06:09;6.07;;;4.50;;
21334;SDS011;10826;52.536;13.432;2022-10-24T07:08:39;9.13;;;4.70;;
21334;SDS011;10826;52.536;13.432;2022-10-24T07:11:05;6.37;;;4.93;;
21334;SDS011;10826;52.536;13.432;2022-10-24T07:13:31;6.03;;;5.40;;
21334;SDS011;10826;52.536;13.432;2022-10-24T07:15:57;9.70;;;5.57;;
21334;SDS011;10826;52.536;13.432;2022-10-24T07:18:23;8.70;;;5.30;;
21334;SDS011;10826;52.536;13.432;2022-10-24T07:20:49;4.97;;;4.57;;
21334;SDS011;10826;52.536;13.432;2022-10-24T07:23:15;7.47;;;5.10;;
21334;SDS011;10826;52.536;13.432;2022-10-24T07:25:42;10.13;;;4.20;;
21334;SDS011;10826;52.536;13.432;2022-10-24T07:28:09;5.17;;;4.33;;
21334;SDS011;10826;52.536;13.432;2022-10-24T07:30:35;8.77;;;4.70;;
21334;SDS011;10826;52.536;13.432;2022-10-24T07:33:03;5.13;;;3.87;;
21334;SDS011;10826;52.536;13.432;2022-10-24T07:35:30;7.50;;;4.97;;
21334;SDS011;10826;52.536;13.432;2022-10-24T07:37:56;6.27;;;4.00;;
21334;SDS011;10826;52.536;13.432;2022-10-24T07:40:22;11.10;;;4.80;;
21334;SDS011;10826;52.536;13.432;2022-10-24T07:42:48;6.87;;;4.43;;
21334;SDS011;10826;52.536;13.432;2022-10-24T07:45:13;7.03;;;4.23;;
21334;SDS011;10826;52.536;13.432;2022-10-24T07:47:39;7.10;;;3.83;;
21334;SDS011;10826;52.536;13.432;2022-10-24T07:50:05;7.07;;;4.23;;
21334;SDS011;10826;52.536;13.432;2022-10-24T07:52:32;7.30;;;4.40;;
21334;SDS011;10826;52.536;13.432;2022-10-24T07:54:58;8.73;;;4.67;;
21334;SDS011;10826;52.536;13.432;2022-10-24T07:57:24;7.20;;;4.33;;
21334;SDS011;10826;52.536;13.432;2022-10-24T07:59:50;7.80;;;4.00;;
21334;SDS011;10826;52.536;13.432;2022-10-24T08:02:16;4.70;;;3.90;;
21334;SDS011;10826;52.536;13.432;2022-10-24T08:04:42;6.20;;;4.03;;
21334;SDS011;10826;52.536;13.432;2022-10-24T08:07:09;8.60;;;4.30;;
21334;SDS011;10826;52.536;13.432;2022-10-24T08:09:42;7.20;;;4.00;;
21334;SDS011;10826;52.536;13.432;2022-10-24T08:12:11;7.03;;;3.70;;
21334;SDS011;10826;52.536;13.432;2022-10-24T08:14:37;9.83;;;4.20;;
21334;SDS011;10826;52.536;13.432;2022-10-24T08:17:05;5.77;;;3.43;;
21334;SDS011;10826;52.536;13.432;2022-10-24T08:19:31;9.57;;;4.60;;
21334;SDS011;10826;52.536;13.432;2022-10-24T08:21:58;7.93;;;3.97;;
21334;SDS011;10826;52.536;13.432;2022-10-24T08:24:25;11.43;;;4.90;;
21334;SDS011;10826;52.536;13.432;2022-10-24T08:26:52;9.67;;;4.47;;
21334;SDS011;10826;52.536;13.432;2022-10-24T08:29:19;10.10;;;4.87;;
21334;SDS011;10826;52.536;13.432;2022-10-24T08:31:49;10.20;;;5.20;;
21334;SDS011;10826;52.536;13.432;2022-10-24T08:34:18;8.47;;;4.03;;
21334;SDS011;10826;52.536;13.432;2022-10-24T08:36:45;7.87;;;3.47;;
21334;SDS011;10826;52.536;13.432;2022-10-24T08:39:15;8.40;;;4.07;;
21334;SDS011;10826;52.536;13.432;2022-10-24T08:41:42;6.17;;;4.40;;
21334;SDS011;10826;52.536;13.432;2022-10-24T08:55:30;7.17;;;3.40;;
21334;SDS011;10826;52.536;13.432;2022-10-24T08:58:04;12.73;;;3.17;;
21334;SDS011;10826;52.536;13.432;2022-10-24T09:00:37;8.40;;;3.50;;
21334;SDS011;10826;52.536;13.432;2022-10-24T09:03:12;8.93;;;4.53;;
21334;SDS011;10826;52.536;13.432;2022-10-24T09:05:50;9.83;;;4.47;;
21334;SDS011;10826;52.536;13.432;2022-10-24T09:10:57;4.77;;;2.80;;
21334;SDS011;10826;52.536;13.432;2022-10-24T09:13:27;10.63;;;3.90;;
21334;SDS011;10826;52.536;13.432;2022-10-24T09:15:56;6.23;;;3.10;;
21334;SDS011;10826;52.536;13.432;2022-10-24T09:18:23;7.37;;;3.10;;
21334;SDS011;10826;52.536;13.432;2022-10-24T09:20:53;10.67;;;4.00;;
21334;SDS011;10826;52.536;13.432;2022-10-24T09:23:19;10.43;;;3.13;;
21334;SDS011;10826;52.536;13.432;2022-10-24T09:25:49;12.40;;;4.43;;
21334;SDS011;10826;52.536;13.432;2022-10-24T09:28:18;4.80;;;3.00;;
21334;SDS011;10826;52.536;13.432;2022-10-24T09:30:46;7.97;;;2.93;;
21334;SDS011;10826;52.536;13.432;2022-10-24T09:33:26;13.20;;;4.33;;
21334;SDS011;10826;52.536;13.432;2022-10-24T09:36:02;6.80;;;2.90;;
21334;SDS011;10826;52.536;13.432;2022-10-24T09:38:33;6.10;;;2.83;;
21334;SDS011;10826;52.536;13.432;2022-10-24T09:41:05;6.73;;;2.50;;
21334;SDS011;10826;52.536;13.432;2022-10-24T09:46:37;8.20;;;2.90;;
21334;SDS011;10826;52.536;13.432;2022-10-24T09:51:40;10.57;;;3.80;;
21334;SDS011;10826;52.536;13.432;2022-10-24T09:54:33;7.83;;;2.87;;
21334;SDS011;10826;52.536;13.432;2022-10-24T10:02:26;8.10;;;3.67;;
21334;SDS011;10826;52.536;13.432;2022-10-24T10:07:36;9.50;;;4.47;;
21334;SDS011;10826;52.536;13.432;2022-10-24T10:10:06;6.10;;;3.07;;
21334;SDS011;10826;52.536;13.432;2022-10-24T10:12:55;6.10;;;2.87;;
21334;SDS011;10826;52.536;13.432;2022-10-24T10:15:46;6.40;;;3.60;;
21334;SDS011;10826;52.536;13.432;2022-10-24T10:21:03;3.37;;;2.97;;
21334;SDS011;10826;52.536;13.432;2022-10-24T10:23:45;10.23;;;2.70;;
21334;SDS011;10826;52.536;13.432;2022-10-24T10:29:01;8.93;;;3.17;;
21334;SDS011;10826;52.536;13.432;2022-10-24T10:31:38;8.23;;;2.97;;
21334;SDS011;10826;52.536;13.432;2022-10-24T10:34:16;8.17;;;3.17;;
21334;SDS011;10826;52.536;13.432;2022-10-24T10:51:10;6.97;;;3.07;;
21334;SDS011;10826;52.536;13.432;2022-10-24T10:57:12;7.60;;;4.37;;
21334;SDS011;10826;52.536;13.432;2022-10-24T11:14:48;5.77;;;2.87;;
21334;SDS011;10826;52.536;13.432;2022-10-24T11:26:04;3.87;;;2.40;;
21334;SDS011;10826;52.536;13.432;2022-10-24T11:31:49;6.70;;;3.10;;
21334;SDS011;10826;52.536;13.432;2022-10-24T11:34:44;7.37;;;3.03;;
21334;SDS011;10826;52.536;13.432;2022-10-24T11:40:49;11.23;;;3.57;;
21334;SDS011;10826;52.536;13.432;2022-10-24T11:43:37;5.67;;;2.80;;
21334;SDS011;10826;52.536;13.432;2022-10-24T11:49:19;7.13;;;3.33;;
21334;SDS011;10826;52.536;13.432;2022-10-24T11:51:56;6.60;;;3.30;;
21334;SDS011;10826;52.536;13.432;2022-10-24T11:54:47;6.40;;;2.67;;
21334;SDS011;10826;52.536;13.432;2022-10-24T11:57:27;4.03;;;2.50;;
21334;SDS011;10826;52.536;13.432;2022-10-24T11:59:55;8.20;;;3.10;;
21334;SDS011;10826;52.536;13.432;2022-10-24T12:13:46;6.57;;;3.20;;
21334;SDS011;10826;52.536;13.432;2022-10-24T12:19:44;32.43;;;8.03;;
21334;SDS011;10826;52.536;13.432;2022-10-24T12:22:14;9.87;;;3.20;;
21334;SDS011;10826;52.536;13.432;2022-10-24T12:25:36;11.93;;;3.13;;
21334;SDS011;10826;52.536;13.432;2022-10-24T12:27:54;7.40;;;2.80;;
21334;SDS011;10826;52.536;13.432;2022-10-24T12:30:24;4.00;;;2.80;;
21334;SDS011;10826;52.536;13.432;2022-10-24T12:32:58;9.43;;;2.90;;
21334;SDS011;10826;52.536;13.432;2022-10-24T12:35:52;5.70;;;2.40;;
21334;SDS011;10826;52.536;13.432;2022-10-24T12:40:57;8.90;;;2.70;;
21334;SDS011;10826;52.536;13.432;2022-10-24T12:43:43;7.30;;;2.97;;
21334;SDS011;10826;52.536;13.432;2022-10-24T12:51:31;11.83;;;4.00;;
21334;SDS011;10826;52.536;13.432;2022-10-24T12:59:18;5.10;;;2.50;;
21334;SDS011;10826;52.536;13.432;2022-10-24T13:02:24;6.07;;;2.67;;
21334;SDS011;10826;52.536;13.432;2022-10-24T13:05:00;4.43;;;3.37;;
21334;SDS011;10826;52.536;13.432;2022-10-24T13:19:42;7.27;;;3.70;;
21334;SDS011;10826;52.536;13.432;2022-10-24T13:22:32;4.37;;;2.93;;
21334;SDS011;10826;52.536;13.432;2022-10-24T13:24:59;4.10;;;3.17;;
21334;SDS011;10826;52.536;13.432;2022-10-24T13:28:44;7.00;;;2.00;;
21334;SDS011;10826;52.536;13.432;2022-10-24T13:36:11;6.67;;;2.60;;
21334;SDS011;10826;52.536;13.432;2022-10-24T13:44:09;7.57;;;2.47;;
21334;SDS011;10826;52.536;13.432;2022-10-24T13:47:13;6.23;;;2.53;;
21334;SDS011;10826;52.536;13.432;2022-10-24T13:50:05;4.27;;;2.33;;
21334;SDS011;10826;52.536;13.432;2022-10-24T13:55:51;6.60;;;2.40;;
21334;SDS011;10826;52.536;13.432;2022-10-24T13:58:19;4.53;;;2.40;;
21334;SDS011;10826;52.536;13.432;2022-10-24T14:00:58;4.03;;;2.33;;
21334;SDS011;10826;52.536;13.432;2022-10-24T14:03:30;6.53;;;3.33;;
21334;SDS011;10826;52.536;13.432;2022-10-24T14:06:03;8.20;;;2.63;;
21334;SDS011;10826;52.536;13.432;2022-10-24T14:08:42;6.43;;;2.67;;
21334;SDS011;10826;52.536;13.432;2022-10-24T14:11:17;6.73;;;2.70;;
21334;SDS011;10826;52.536;13.432;2022-10-24T14:13:51;11.53;;;3.80;;
21334;SDS011;10826;52.536;13.432;2022-10-24T14:16:25;7.77;;;2.67;;
21334;SDS011;10826;52.536;13.432;2022-10-24T14:21:57;8.87;;;2.87;;
21334;SDS011;10826;52.536;13.432;2022-10-24T14:24:24;5.90;;;2.53;;
21334;SDS011;10826;52.536;13.432;2022-10-24T14:26:50;7.07;;;2.70;;
21334;SDS011;10826;52.536;13.432;2022-10-24T14:29:24;9.23;;;3.10;;
21334;SDS011;10826;52.536;13.432;2022-10-24T14:31:59;6.40;;;2.30;;
21334;SDS011;10826;52.536;13.432;2022-10-24T14:34:29;4.80;;;2.43;;
21334;SDS011;10826;52.536;13.432;2022-10-24T14:37:16;7.33;;;4.33;;
21334;SDS011;10826;52.536;13.432;2022-10-24T14:39:55;6.63;;;2.77;;
21334;SDS011;10826;52.536;13.432;2022-10-24T14:42:22;5.23;;;2.40;;
21334;SDS011;10826;52.536;13.432;2022-10-24T14:44:48;7.47;;;2.97;;
21334;SDS011;10826;52.536;13.432;2022-10-24T14:49:52;3.83;;;2.60;;
21334;SDS011;10826;52.536;13.432;2022-10-24T14:55:15;5.27;;;2.50;;
21334;SDS011;10826;52.536;13.432;2022-10-24T14:57:47;5.43;;;2.57;;
21334;SDS011;10826;52.536;13.432;2022-10-24T15:00:25;6.83;;;2.67;;
21334;SDS011;10826;52.536;13.432;2022-10-24T15:02:59;6.77;;;2.83;;
21334;SDS011;10826;52.536;13.432;2022-10-24T15:05:28;3.33;;;2.37;;
21334;SDS011;10826;52.536;13.432;2022-10-24T15:07:59;4.77;;;2.60;;
21334;SDS011;10826;52.536;13.432;2022-10-24T15:10:44;5.80;;;2.60;;
21334;SDS011;10826;52.536;13.432;2022-10-24T15:13:11;9.47;;;2.83;;
21334;SDS011;10826;52.536;13.432;2022-10-24T15:18:23;12.37;;;3.00;;
21334;SDS011;10826;52.536;13.432;2022-10-24T15:21:12;5.00;;;2.77;;
21334;SDS011;10826;52.536;13.432;2022-10-24T15:23:57;11.33;;;2.90;;
21334;SDS011;10826;52.536;13.432;2022-10-24T15:26:35;7.33;;;2.60;;
21334;SDS011;10826;52.536;13.432;2022-10-24T15:31:37;6.37;;;3.30;;
21334;SDS011;10826;52.536;13.432;2022-10-24T15:34:19;7.77;;;2.50;;
21334;SDS011;10826;52.536;13.432;2022-10-24T15:36:48;7.57;;;2.77;;
21334;SDS011;10826;52.536;13.432;2022-10-24T15:39:17;5.57;;;3.07;;
21334;SDS011;10826;52.536;13.432;2022-10-24T15:41:46;8.83;;;3.27;;
21334;SDS011;10826;52.536;13.432;2022-10-24T15:44:22;6.00;;;2.80;;
21334;SDS011;10826;52.536;13.432;2022-10-24T15:46:53;8.53;;;3.53;;
21334;SDS011;10826;52.536;13.432;2022-10-24T15:49:20;11.80;;;3.53;;
21334;SDS011;10826;52.536;13.432;2022-10-24T15:51:46;7.27;;;3.03;;
21334;SDS011;10826;52.536;13.432;2022-10-24T15:54:15;10.47;;;3.07;;
21334;SDS011;10826;52.536;13.432;2022-10-24T15:56:44;4.57;;;3.00;;
21334;SDS011;10826;52.536;13.432;2022-10-24T15:59:09;7.43;;;3.10;;
21334;SDS011;10826;52.536;13.432;2022-10-24T16:01:40;5.97;;;3.93;;
21334;SDS011;10826;52.536;13.432;2022-10-24T16:04:12;7.93;;;3.07;;
21334;SDS011;10826;52.536;13.432;2022-10-24T16:06:39;6.73;;;3.47;;
21334;SDS011;10826;52.536;13.432;2022-10-24T16:09:06;8.50;;;3.30;;
21334;SDS011;10826;52.536;13.432;2022-10-24T16:11:40;9.67;;;3.40;;
21334;SDS011;10826;52.536;13.432;2022-10-24T16:14:06;5.97;;;3.73;;
21334;SDS011;10826;52.536;13.432;2022-10-24T16:16:37;8.50;;;2.83;;
21334;SDS011;10826;52.536;13.432;2022-10-24T16:19:03;4.43;;;3.10;;
21334;SDS011;10826;52.536;13.432;2022-10-24T16:21:29;7.57;;;3.43;;
21334;SDS011;10826;52.536;13.432;2022-10-24T16:23:55;6.97;;;2.90;;
21334;SDS011;10826;52.536;13.432;2022-10-24T16:26:21;5.73;;;2.93;;
21334;SDS011;10826;52.536;13.432;2022-10-24T16:28:47;10.00;;;3.10;;
21334;SDS011;10826;52.536;13.432;2022-10-24T16:31:14;7.43;;;3.33;;
21334;SDS011;10826;52.536;13.432;2022-10-24T16:33:47;7.97;;;2.77;;
21334;SDS011;10826;52.536;13.432;2022-10-24T16:36:14;9.77;;;3.00;;
21334;SDS011;10826;52.536;13.432;2022-10-24T16:38:42;4.90;;;2.83;;
21334;SDS011;10826;52.536;13.432;2022-10-24T16:41:14;4.17;;;2.33;;
21334;SDS011;10826;52.536;13.432;2022-10-24T16:43:43;5.77;;;2.80;;
21334;SDS011;10826;52.536;13.432;2022-10-24T16:46:14;4.53;;;2.53;;
21334;SDS011;10826;52.536;13.432;2022-10-24T16:48:43;7.07;;;2.90;;
21334;SDS011;10826;52.536;13.432;2022-10-24T16:51:11;5.70;;;3.30;;
21334;SDS011;10826;52.536;13.432;2022-10-24T16:53:40;7.77;;;2.90;;
21334;SDS011;10826;52.536;13.432;2022-10-24T16:56:10;3.70;;;2.50;;
21334;SDS011;10826;52.536;13.432;2022-10-24T16:58:38;2.83;;;2.57;;
21334;SDS011;10826;52.536;13.432;2022-10-24T17:01:06;3.63;;;2.70;;
21334;SDS011;10826;52.536;13.432;2022-10-24T17:03:35;10.47;;;2.97;;
21334;SDS011;10826;52.536;13.432;2022-10-24T17:06:02;3.70;;;2.53;;
21334;SDS011;10826;52.536;13.432;2022-10-24T17:08:30;6.13;;;2.60;;
21334;SDS011;10826;52.536;13.432;2022-10-24T17:10:56;3.93;;;2.33;;
21334;SDS011;10826;52.536;13.432;2022-10-24T17:13:22;3.80;;;2.40;;
21334;SDS011;10826;52.536;13.432;2022-10-24T17:15:48;5.70;;;2.80;;
21334;SDS011;10826;52.536;13.432;2022-10-24T17:18:14;3.37;;;2.93;;
21334;SDS011;10826;52.536;13.432;2022-10-24T17:20:44;4.60;;;2.50;;
21334;SDS011;10826;52.536;13.432;2022-10-24T17:23:12;4.87;;;2.77;;
21334;SDS011;10826;52.536;13.432;2022-10-24T17:25:41;4.70;;;3.17;;
21334;SDS011;10826;52.536;13.432;2022-10-24T17:28:13;5.60;;;2.57;;
21334;SDS011;10826;52.536;13.432;2022-10-24T17:30:40;2.33;;;2.13;;
21334;SDS011;10826;52.536;13.432;2022-10-24T17:33:08;7.30;;;2.70;;
21334;SDS011;10826;52.536;13.432;2022-10-24T17:35:36;4.53;;;2.63;;
21334;SDS011;10826;52.536;13.432;2022-10-24T17:38:20;5.93;;;2.53;;
21334;SDS011;10826;52.536;13.432;2022-10-24T17:40:53;3.67;;;2.50;;
21334;SDS011;10826;52.536;13.432;2022-10-24T17:43:25;4.60;;;3.50;;
21334;SDS011;10826;52.536;13.432;2022-10-24T17:45:52;5.43;;;3.03;;
21334;SDS011;10826;52.536;13.432;2022-10-24T17:48:20;5.73;;;2.90;;